This is the latest recevied weather packets stored in our database for station/object VK5TRM-14. If no packets are shown the sender has not sent any weather packets the latest 10 day(s).
| Time | Temp. | Humidity | Pressure | Rain* | Wind** | Luminosity | Snow |
|---|---|---|---|---|---|---|---|
| 1777596305 | 25° C | 35% | 1021.3 hPa | 0 mm | - | - | - |
| 1777595405 | 23.33° C | 37% | 1021.4 hPa | 0 mm | - | - | - |
| 1777594507 | 23.33° C | 37% | 1021.4 hPa | 0 mm | - | - | - |
| 1777593606 | 21.67° C | 41% | 1021.4 hPa | 0 mm | - | - | - |
| 1777592705 | 21.67° C | 41% | 1021.4 hPa | 0 mm | - | - | - |
| 1777591805 | 20° C | 45% | 1021.4 hPa | 0 mm | - | - | - |
| 1777590905 | 20° C | 45% | 1021.4 hPa | 0 mm | - | - | - |
| 1777590005 | 18.33° C | 46% | 1021.2 hPa | 0 mm | - | - | - |
| 1777589105 | 18.33° C | 46% | 1021.2 hPa | 0 mm | - | - | - |
| 1777588204 | 16.67° C | 49% | 1020.9 hPa | 0 mm | - | - | - |
| 1777587304 | 16.67° C | 49% | 1020.9 hPa | 0 mm | - | - | - |
| 1777586405 | 13.89° C | 56% | 1020.8 hPa | 0 mm | - | - | - |
| 1777585506 | 13.89° C | 56% | 1020.8 hPa | 0 mm | - | - | - |
| 1777584605 | 13.89° C | 56% | 1020.7 hPa | 0 mm | - | - | - |
| 1777583705 | 13.89° C | 56% | 1020.7 hPa | 0 mm | - | - | - |
| 1777582805 | 13.33° C | 57% | 1020.7 hPa | 0 mm | - | - | - |
| 1777581905 | 13.33° C | 57% | 1020.7 hPa | 0 mm | - | - | - |
| 1777581005 | 13.33° C | 56% | 1020.5 hPa | 0 mm | - | - | - |
| 1777580105 | 13.33° C | 56% | 1020.5 hPa | 0 mm | - | - | - |
| 1777579205 | 10° C | 61% | 1020.6 hPa | 0 mm | - | - | - |
| 1777578306 | 10° C | 61% | 1020.6 hPa | 0 mm | - | - | - |
| 1777577405 | 8.89° C | 58% | 1020.4 hPa | 0 mm | - | - | - |
| 1777576505 | 8.89° C | 58% | 1020.4 hPa | 0 mm | - | - | - |
| 1777575605 | 8.89° C | 56% | 1020.2 hPa | 0 mm | - | - | - |
| 1777574705 | 8.89° C | 56% | 1020.2 hPa | 0 mm | - | - | - |
* Rain since midnight (hover to see other rain measurements)
** Current wind speed in m/s (hover to see current wind gust speed)